This is the latest recevied weather packets stored in our database for station/object K3BAK-13. If no packets are shown the sender has not sent any weather packets the latest 10 day(s).
| Time | Temp. | Humidity | Pressure | Rain* | Wind** | Luminosity | Snow |
|---|---|---|---|---|---|---|---|
| 1778045758 | 14.44° C | 85% | 1009.2 hPa | 0.76 mm | - | - | - |
| 1778044258 | 15° C | 83% | 1009.6 hPa | 0.51 mm | - | - | - |
| 1778043662 | 15.56° C | 79% | 1009.6 hPa | 0.51 mm | - | - | - |
| 1778041258 | 18.89° C | 59% | 1009.6 hPa | 0 mm | - | - | - |
| 1778040059 | 19.44° C | 57% | 1009 hPa | 0 mm | - | - | - |
| 1778038558 | 19.44° C | 56% | 1008.8 hPa | 0 mm | - | - | - |
| 1778037658 | 19.44° C | 55% | 1008.8 hPa | 0 mm | - | - | - |
| 1778036758 | 20° C | 55% | 1008.8 hPa | 0 mm | - | - | - |
| 1778036157 | 19.44° C | 55% | 1009 hPa | 0 mm | - | - | - |
| 1778035257 | 19.44° C | 55% | 1008.9 hPa | 0 mm | - | - | - |
| 1778033761 | 20° C | 55% | 1009 hPa | 0 mm | - | - | - |
| 1778033157 | 20° C | 55% | 1008.9 hPa | 0 mm | - | - | - |
| 1778032860 | 20° C | 55% | 1008.9 hPa | 0 mm | - | - | - |
| 1778031066 | 20° C | 54% | 1008.8 hPa | 0 mm | - | - | - |
| 1778030183 | 20° C | 54% | 1008.7 hPa | 0 mm | - | - | - |
| 1778028361 | 20.56° C | 52% | 1009.2 hPa | 0 mm | - | - | - |
| 1778027158 | 20.56° C | 52% | 1009.1 hPa | 0 mm | - | - | - |
| 1778026562 | 21.11° C | 51% | 1009.1 hPa | 0 mm | - | - | - |
| 1778026258 | 21.11° C | 51% | 1009.2 hPa | 0 mm | - | - | - |
| 1778024460 | 21.11° C | 49% | 1009 hPa | 0 mm | - | - | - |
| 1778023859 | 21.67° C | 49% | 1008.9 hPa | 0 mm | - | - | - |
| 1778019960 | 22.22° C | 51% | 1009 hPa | 0 mm | - | - | - |
| 1778019661 | 22.22° C | 52% | 1009.2 hPa | 0 mm | - | - | - |
| 1778018760 | 22.22° C | 53% | 1009.2 hPa | 0 mm | - | - | - |
| 1778017263 | 22.22° C | 53% | 1009.1 hPa | 0 mm | - | - | - |
* Rain latest hour (hover to see other rain measurements)
** Current wind speed in m/s (hover to see current wind gust speed)